createdAt,value
2023-04-27T00:00:37.617Z,99389.80
2023-04-27T00:03:16.309Z,99391.36
2023-04-27T00:05:44.548Z,99389.58
2023-04-27T00:08:12.379Z,99389.20
2023-04-27T00:10:40.037Z,99390.20
2023-04-27T00:13:07.695Z,99392.90
2023-04-27T00:15:35.365Z,99393.37
2023-04-27T00:18:03.153Z,99393.63
2023-04-27T00:20:30.881Z,99393.20
2023-04-27T00:22:58.552Z,99393.00
2023-04-27T00:25:26.309Z,99392.37
2023-04-27T00:27:53.977Z,99396.95
2023-04-27T00:30:21.743Z,99398.65
2023-04-27T00:32:49.428Z,99398.79
2023-04-27T00:35:17.282Z,99395.80
2023-04-27T00:37:45.027Z,99398.02
2023-04-27T00:40:12.730Z,99394.35
2023-04-27T00:42:40.738Z,99395.27
2023-04-27T00:45:08.523Z,99394.13
2023-04-27T00:47:36.341Z,99394.27
2023-04-27T00:50:04.266Z,99394.08
2023-04-27T00:52:31.921Z,99389.67
2023-04-27T00:54:59.685Z,99396.39
2023-04-27T00:57:27.348Z,99400.81
2023-04-27T00:59:55.007Z,99401.25
2023-04-27T01:02:23.079Z,99406.20
2023-04-27T01:04:51.255Z,99403.81
2023-04-27T01:07:18.912Z,99404.77
2023-04-27T01:09:46.881Z,99403.98
2023-04-27T01:12:14.644Z,99409.95
2023-04-27T01:14:42.612Z,99408.70
2023-04-27T01:17:11.064Z,99406.21
2023-04-27T01:19:40.597Z,99405.64
2023-04-27T01:22:08.365Z,99408.46
2023-04-27T01:24:36.812Z,99411.61
2023-04-27T01:27:05.130Z,99411.45
2023-04-27T01:29:32.886Z,99417.38
2023-04-27T01:32:00.560Z,99418.48
2023-04-27T01:34:28.310Z,99421.50
2023-04-27T01:36:55.968Z,99423.70
2023-04-27T01:39:23.634Z,99425.85
2023-04-27T01:41:51.303Z,99427.86
2023-04-27T01:44:21.106Z,99427.52
2023-04-27T01:46:48.873Z,99424.38
2023-04-27T01:49:16.996Z,99424.55
2023-04-27T01:51:44.794Z,99427.11
2023-04-27T01:54:12.486Z,99432.39
2023-04-27T01:56:40.141Z,99432.72
2023-04-27T01:59:07.916Z,99429.95
2023-04-27T02:01:35.804Z,99431.45
2023-04-27T02:04:04.585Z,99429.82
2023-04-27T02:06:32.961Z,99428.92
2023-04-27T02:09:00.597Z,99432.30
2023-04-27T02:11:28.378Z,99432.36
2023-04-27T02:13:56.124Z,99431.05
2023-04-27T02:16:23.955Z,99438.59
2023-04-27T02:18:54.021Z,99438.05
2023-04-27T02:21:21.975Z,99435.39
2023-04-27T02:23:49.637Z,99438.90
2023-04-27T02:26:17.822Z,99441.06
2023-04-27T02:28:45.981Z,99436.38
2023-04-27T02:31:14.825Z,99441.17
2023-04-27T02:33:42.653Z,99442.34
2023-04-27T02:36:10.518Z,99441.45
2023-04-27T02:38:38.177Z,99440.17
2023-04-27T02:41:06.037Z,99440.77
2023-04-27T02:43:33.695Z,99442.23
2023-04-27T02:46:01.356Z,99444.80
2023-04-27T02:48:29.016Z,99442.96
2023-04-27T02:50:57.497Z,99444.16
2023-04-27T02:53:25.157Z,99441.20
2023-04-27T02:55:52.842Z,99444.17
2023-04-27T02:58:20.590Z,99446.66
2023-04-27T03:00:48.970Z,99446.03
2023-04-27T03:03:16.999Z,99448.63
2023-04-27T03:05:44.826Z,99442.75
2023-04-27T03:08:12.565Z,99445.66
2023-04-27T03:10:40.225Z,99442.31
2023-04-27T03:13:07.883Z,99445.92
2023-04-27T03:15:35.652Z,99448.64
2023-04-27T03:18:03.427Z,99450.24
2023-04-27T03:20:32.196Z,99447.70
2023-04-27T03:22:59.965Z,99452.55
2023-04-27T03:25:27.638Z,99452.97
2023-04-27T03:27:55.393Z,99452.78
2023-04-27T03:30:23.061Z,99454.15
2023-04-27T03:32:50.957Z,99454.89
2023-04-27T03:35:18.792Z,99456.45
2023-04-27T03:37:46.557Z,99458.69
2023-04-27T03:40:14.757Z,99462.27
2023-04-27T03:42:42.486Z,99470.02
2023-04-27T03:45:12.397Z,99467.54
2023-04-27T03:47:40.311Z,99468.62
2023-04-27T03:50:08.140Z,99474.38
2023-04-27T03:52:35.798Z,99471.53
2023-04-27T03:55:03.457Z,99477.36
2023-04-27T03:57:31.227Z,99479.13
2023-04-27T03:59:58.904Z,99480.34
2023-04-27T04:02:27.145Z,99484.88
2023-04-27T04:04:55.150Z,99484.48
2023-04-27T04:07:23.099Z,99488.79
2023-04-27T04:09:51.186Z,99491.30
2023-04-27T04:12:18.908Z,99496.35
2023-04-27T04:14:49.147Z,99498.23
2023-04-27T04:17:17.129Z,99499.57
2023-04-27T04:19:45.093Z,99502.85
2023-04-27T04:22:12.764Z,99508.16
2023-04-27T04:24:40.577Z,99508.71
2023-04-27T04:27:09.213Z,99514.27
2023-04-27T04:29:36.899Z,99518.61
2023-04-27T04:32:04.629Z,99517.71
2023-04-27T04:34:32.293Z,99522.46
2023-04-27T04:36:59.954Z,99526.30
2023-04-27T04:39:27.612Z,99526.92
2023-04-27T04:41:55.276Z,99532.05
2023-04-27T04:44:23.048Z,99532.27
2023-04-27T04:46:51.441Z,99532.77
2023-04-27T04:49:19.181Z,99533.76
2023-04-27T04:51:47.368Z,99539.73
2023-04-27T04:54:15.324Z,99539.70
2023-04-27T04:56:42.946Z,99543.61
2023-04-27T04:59:10.971Z,99540.61
2023-04-27T05:01:38.862Z,99539.41
2023-04-27T05:04:06.753Z,99537.94
2023-04-27T05:06:34.862Z,99540.70
2023-04-27T05:09:02.523Z,99544.57
2023-04-27T05:11:30.288Z,99542.38
2023-04-27T05:13:57.949Z,99545.67
2023-04-27T05:16:26.772Z,99549.04
2023-04-27T05:18:55.010Z,99553.16
2023-04-27T05:21:22.802Z,99553.45
2023-04-27T05:23:50.655Z,99559.48
2023-04-27T05:26:18.405Z,99560.70
2023-04-27T05:28:47.296Z,99563.44
2023-04-27T05:31:14.982Z,99562.77
2023-04-27T05:33:42.730Z,99565.89
2023-04-27T05:36:11.101Z,99566.73
2023-04-27T05:38:40.476Z,99569.98
2023-04-27T05:41:08.476Z,99570.23
2023-04-27T05:43:38.189Z,99567.86
2023-04-27T05:46:05.975Z,99569.37
2023-04-27T05:48:33.727Z,99575.77
2023-04-27T05:51:01.999Z,99575.90
2023-04-27T05:53:29.754Z,99577.39
2023-04-27T05:55:59.461Z,99578.77
2023-04-27T05:58:27.131Z,99575.09
2023-04-27T06:00:54.894Z,99577.87
2023-04-27T06:03:22.811Z,99577.71
2023-04-27T06:05:50.726Z,99578.21
2023-04-27T06:08:18.394Z,99584.14
2023-04-27T06:10:46.049Z,99587.80
2023-04-27T06:13:13.814Z,99586.90
2023-04-27T06:15:41.798Z,99589.14
2023-04-27T06:18:09.594Z,99585.50
2023-04-27T06:20:37.423Z,99587.05
2023-04-27T06:23:05.078Z,99581.33
2023-04-27T06:25:32.739Z,99588.41
2023-04-27T06:28:00.606Z,99590.09
2023-04-27T06:30:28.390Z,99593.14
2023-04-27T06:32:56.176Z,99593.99
2023-04-27T06:35:23.911Z,99596.02
2023-04-27T06:37:51.657Z,99600.85
2023-04-27T06:40:19.317Z,99602.20
2023-04-27T06:42:46.971Z,99600.38
2023-04-27T06:45:14.750Z,99602.14
2023-04-27T06:47:42.518Z,99593.77
2023-04-27T06:50:10.279Z,99591.98
2023-04-27T06:52:38.038Z,99591.94
2023-04-27T06:55:06.013Z,99590.17
2023-04-27T06:57:33.877Z,99590.96
2023-04-27T07:00:01.748Z,99591.05
2023-04-27T07:02:29.476Z,99589.23
2023-04-27T07:04:57.434Z,99593.29
2023-04-27T07:07:25.134Z,99594.12
2023-04-27T07:09:52.794Z,99589.02
2023-04-27T07:12:20.662Z,99588.74
2023-04-27T07:14:50.890Z,99590.40
2023-04-27T07:17:18.648Z,99591.36
2023-04-27T07:19:46.423Z,99593.86
2023-04-27T07:22:16.187Z,99598.30
2023-04-27T07:24:43.888Z,99596.85
2023-04-27T07:27:11.648Z,99602.31
2023-04-27T07:29:39.618Z,99601.52
2023-04-27T07:32:07.520Z,99598.45
2023-04-27T07:34:49.054Z,99598.19
2023-04-27T07:37:21.265Z,99601.41
2023-04-27T07:39:48.944Z,99598.35
2023-04-27T07:42:16.968Z,99598.77
2023-04-27T07:44:44.632Z,99599.06
2023-04-27T07:47:13.438Z,99601.40
2023-04-27T07:49:41.200Z,99600.08
2023-04-27T07:52:08.953Z,99602.23
2023-04-27T07:54:36.621Z,99600.75
2023-04-27T07:57:04.275Z,99602.54
2023-04-27T07:59:32.032Z,99598.05
2023-04-27T08:02:17.843Z,99596.23
2023-04-27T08:04:48.205Z,99598.58
2023-04-27T08:07:17.335Z,99596.58
2023-04-27T08:09:45.421Z,99600.11
2023-04-27T08:12:13.052Z,99601.71
2023-04-27T08:14:40.944Z,99598.93
2023-04-27T08:17:08.607Z,99593.05
2023-04-27T08:19:36.471Z,99598.48
2023-04-27T08:22:04.157Z,99598.35
2023-04-27T08:24:32.005Z,99596.81
2023-04-27T08:26:59.667Z,99598.89
2023-04-27T08:29:28.851Z,99596.83
2023-04-27T08:31:57.193Z,99603.28
2023-04-27T08:34:25.108Z,99601.40
2023-04-27T08:36:54.227Z,99604.03
2023-04-27T08:39:22.073Z,99599.19
2023-04-27T08:41:49.846Z,99602.52
2023-04-27T08:44:17.491Z,99606.05
2023-04-27T08:46:45.451Z,99601.97
2023-04-27T08:49:15.995Z,99600.98
2023-04-27T08:51:44.926Z,99602.55
2023-04-27T08:54:12.665Z,99605.14
2023-04-27T08:56:40.306Z,99607.58
2023-04-27T08:59:07.981Z,99604.27
2023-04-27T09:01:35.759Z,99603.41
2023-04-27T09:04:03.790Z,99606.12
2023-04-27T09:06:32.052Z,99606.95
2023-04-27T09:08:59.956Z,99609.02
2023-04-27T09:14:22.107Z,99606.75
2023-04-27T09:16:50.286Z,99605.91
2023-04-27T09:19:18.041Z,99598.63
2023-04-27T09:21:48.364Z,99593.92
2023-04-27T09:24:16.020Z,99598.80
2023-04-27T09:26:43.790Z,99595.14
2023-04-27T09:29:12.111Z,99593.13
2023-04-27T09:31:40.662Z,99596.04
2023-04-27T09:34:08.413Z,99594.41
2023-04-27T09:36:36.381Z,99590.33
2023-04-27T09:39:06.907Z,99591.67
2023-04-27T09:41:34.566Z,99590.84
2023-04-27T09:44:02.234Z,99593.29
2023-04-27T09:46:30.266Z,99589.50
2023-04-27T09:48:58.066Z,99584.52
2023-04-27T09:51:26.444Z,99586.27
2023-04-27T09:53:54.208Z,99580.88
2023-04-27T09:56:22.299Z,99582.09
2023-04-27T09:58:50.044Z,99583.48
2023-04-27T10:01:17.739Z,99588.33
2023-04-27T10:03:45.628Z,99590.76
2023-04-27T10:06:13.442Z,99590.40
2023-04-27T10:08:42.033Z,99586.23
2023-04-27T10:11:09.687Z,99587.96
2023-04-27T10:13:37.447Z,99589.70
2023-04-27T10:16:05.109Z,99588.52
2023-04-27T10:18:32.783Z,99589.56
2023-04-27T10:21:00.744Z,99586.61
2023-04-27T10:23:29.199Z,99585.56
2023-04-27T10:25:57.510Z,99581.40
2023-04-27T10:28:25.473Z,99580.02
2023-04-27T10:30:53.238Z,99573.27
2023-04-27T10:33:21.612Z,99569.84
2023-04-27T10:35:49.273Z,99567.41
2023-04-27T10:38:17.492Z,99564.48
2023-04-27T10:40:45.215Z,99564.33
2023-04-27T10:43:12.976Z,99561.02
2023-04-27T10:45:41.708Z,99565.72
2023-04-27T10:48:09.600Z,99569.38
2023-04-27T10:50:37.393Z,99565.38
2023-04-27T10:53:05.055Z,99563.98
2023-04-27T10:55:32.819Z,99564.67
2023-04-27T10:58:01.714Z,99567.11
2023-04-27T11:00:29.475Z,99571.61
2023-04-27T11:02:57.343Z,99575.44
2023-04-27T11:05:25.640Z,99576.31
2023-04-27T11:07:53.287Z,99579.43
2023-04-27T11:10:21.093Z,99585.34
2023-04-27T11:12:48.911Z,99586.55
2023-04-27T11:15:16.674Z,99584.12
2023-04-27T11:17:44.617Z,99587.61
2023-04-27T11:20:12.747Z,99583.64
2023-04-27T11:22:40.580Z,99583.63
2023-04-27T11:25:08.799Z,99585.56
2023-04-27T11:27:37.131Z,99581.41
2023-04-27T11:30:04.893Z,99580.53
2023-04-27T11:32:32.618Z,99583.16
2023-04-27T11:35:00.726Z,99586.08
2023-04-27T11:37:28.503Z,99589.38
2023-04-27T11:39:57.717Z,99592.17
2023-04-27T11:42:25.671Z,99592.86
2023-04-27T11:44:53.736Z,99594.44
2023-04-27T11:47:22.915Z,99596.16
2023-04-27T11:49:50.807Z,99597.70
2023-04-27T11:52:18.466Z,99600.66
2023-04-27T11:54:46.228Z,99599.77
2023-04-27T11:57:13.898Z,99603.08
2023-04-27T11:59:41.959Z,99603.41
2023-04-27T12:02:10.320Z,99606.71
2023-04-27T12:04:38.418Z,99602.71
2023-04-27T12:07:06.799Z,99602.02
2023-04-27T12:09:34.652Z,99604.61
2023-04-27T12:12:02.767Z,99602.86
2023-04-27T12:14:30.484Z,99605.46
2023-04-27T12:16:58.200Z,99602.67
2023-04-27T12:19:26.329Z,99598.83
2023-04-27T12:21:54.285Z,99599.17
2023-04-27T12:24:22.053Z,99599.70
2023-04-27T12:26:49.817Z,99596.92
2023-04-27T12:29:18.001Z,99597.96
2023-04-27T12:31:45.931Z,99604.58
2023-04-27T12:34:14.004Z,99601.28
2023-04-27T12:36:42.212Z,99601.97
2023-04-27T12:39:09.966Z,99602.14
2023-04-27T12:41:37.639Z,99600.23
2023-04-27T12:44:05.605Z,99600.58
2023-04-27T12:46:33.285Z,99602.66
2023-04-27T12:49:02.152Z,99606.49
2023-04-27T12:51:30.015Z,99604.58
2023-04-27T12:54:00.193Z,99605.28
2023-04-27T12:56:29.025Z,99605.11
2023-04-27T12:58:56.906Z,99603.91
2023-04-27T13:01:28.099Z,99602.88
2023-04-27T13:03:56.288Z,99598.40
2023-04-27T13:06:24.178Z,99596.16
2023-04-27T13:08:51.840Z,99595.13
2023-04-27T13:11:19.502Z,99592.86
2023-04-27T13:13:48.493Z,99592.73
2023-04-27T13:16:16.837Z,99585.94
2023-04-27T13:18:48.528Z,99584.18
2023-04-27T13:21:16.804Z,99581.55
2023-04-27T13:23:44.467Z,99584.02
2023-04-27T13:26:12.128Z,99582.80
2023-04-27T13:28:41.219Z,99582.61
2023-04-27T13:31:08.949Z,99579.48
2023-04-27T13:33:36.783Z,99582.45
2023-04-27T13:36:04.511Z,99582.98
2023-04-27T13:38:32.181Z,99585.75
2023-04-27T13:40:59.842Z,99585.59
2023-04-27T13:43:27.600Z,99584.20
2023-04-27T13:45:57.217Z,99584.55
2023-04-27T13:48:26.112Z,99588.02
2023-04-27T13:50:53.760Z,99592.91
2023-04-27T13:53:21.624Z,99590.13
2023-04-27T13:55:49.322Z,99595.87
2023-04-27T13:58:17.056Z,99593.95
2023-04-27T14:00:44.933Z,99596.39
2023-04-27T14:03:12.828Z,99592.38
2023-04-27T14:05:40.761Z,99594.29
2023-04-27T14:08:08.416Z,99593.05
2023-04-27T14:10:36.077Z,99592.01
2023-04-27T14:13:03.749Z,99591.66
2023-04-27T14:15:33.963Z,99586.09
2023-04-27T14:18:01.690Z,99585.38
2023-04-27T14:20:29.493Z,99583.78
2023-04-27T14:22:58.512Z,99585.02
2023-04-27T14:25:27.481Z,99596.36
2023-04-27T14:27:55.240Z,99595.16
2023-04-27T14:30:23.417Z,99596.73
2023-04-27T14:32:51.233Z,99597.42
2023-04-27T14:35:19.360Z,99598.98
2023-04-27T14:37:47.529Z,99601.44
2023-04-27T14:40:15.290Z,99605.98
2023-04-27T14:42:42.958Z,99606.68
2023-04-27T14:45:10.935Z,99606.14
2023-04-27T14:47:38.932Z,99613.29
2023-04-27T14:50:06.812Z,99615.20
2023-04-27T14:52:34.627Z,99614.81
2023-04-27T14:55:02.392Z,99615.86
2023-04-27T14:57:30.053Z,99615.69
2023-04-27T14:59:57.822Z,99615.70
2023-04-27T15:02:25.758Z,99619.17
2023-04-27T15:04:53.918Z,99620.21
2023-04-27T15:07:21.734Z,99621.95
2023-04-27T15:09:49.500Z,99622.13
2023-04-27T15:12:17.252Z,99624.58
2023-04-27T15:14:45.013Z,99627.36
2023-04-27T15:17:13.510Z,99629.11
2023-04-27T15:19:41.566Z,99631.19
2023-04-27T15:22:09.498Z,99630.15
2023-04-27T15:24:37.394Z,99632.75
2023-04-27T15:27:05.059Z,99632.05
2023-04-27T15:29:32.739Z,99643.02
2023-04-27T15:32:00.603Z,99636.91
2023-04-27T15:34:28.357Z,99635.69
2023-04-27T15:36:56.118Z,99636.73
2023-04-27T15:39:23.784Z,99634.13
2023-04-27T15:41:51.418Z,99634.65
2023-04-27T15:44:19.202Z,99634.83
2023-04-27T15:46:47.139Z,99637.95
2023-04-27T15:49:15.171Z,99639.70
2023-04-27T15:51:43.325Z,99641.80
2023-04-27T15:54:11.491Z,99646.14
2023-04-27T15:56:39.153Z,99648.38
2023-04-27T15:59:08.251Z,99647.68
2023-04-27T16:01:36.790Z,99648.52
2023-04-27T16:04:04.746Z,99650.42
2023-04-27T16:06:33.281Z,99650.74
2023-04-27T16:09:01.884Z,99653.35
2023-04-27T16:11:29.522Z,99656.46
2023-04-27T16:13:57.187Z,99661.34
2023-04-27T16:16:24.989Z,99664.28
2023-04-27T16:18:52.820Z,99666.34
2023-04-27T16:21:20.691Z,99669.09
2023-04-27T16:23:48.574Z,99674.32
2023-04-27T16:26:16.464Z,99665.45
2023-04-27T16:28:44.284Z,99664.76
2023-04-27T16:31:12.148Z,99667.38
2023-04-27T16:33:39.924Z,99664.95
2023-04-27T16:36:07.680Z,99667.25
2023-04-27T16:38:36.579Z,99669.52
2023-04-27T16:41:05.492Z,99668.13
2023-04-27T16:43:34.137Z,99668.48
2023-04-27T16:46:01.919Z,99666.75
2023-04-27T16:48:30.489Z,99670.56
2023-04-27T16:50:58.252Z,99669.87
2023-04-27T16:53:27.348Z,99670.03
2023-04-27T16:55:55.109Z,99667.23
2023-04-27T16:58:22.779Z,99670.00
2023-04-27T17:00:50.538Z,99673.64
2023-04-27T17:03:18.440Z,99670.48
2023-04-27T17:05:46.379Z,99676.04
2023-04-27T17:08:14.032Z,99678.13
2023-04-27T17:10:41.701Z,99682.29
2023-04-27T17:13:11.201Z,99681.23
2023-04-27T17:15:38.880Z,99688.52
2023-04-27T17:18:06.842Z,99685.55
2023-04-27T17:20:34.803Z,99689.52
2023-04-27T17:23:02.568Z,99693.00
2023-04-27T17:25:30.226Z,99696.30
2023-04-27T17:27:59.562Z,99694.20
2023-04-27T17:30:29.172Z,99696.27
2023-04-27T17:32:56.977Z,99696.29
2023-04-27T17:35:24.873Z,99693.84
2023-04-27T17:37:52.639Z,99697.13
2023-04-27T17:40:21.209Z,99700.07
2023-04-27T17:42:49.188Z,99699.35
2023-04-27T17:45:16.954Z,99700.89
2023-04-27T17:47:44.614Z,99706.80
2023-04-27T17:50:12.390Z,99710.10
2023-04-27T17:52:40.146Z,99708.88
2023-04-27T17:55:07.804Z,99710.06
2023-04-27T17:57:35.534Z,99713.02
2023-04-27T18:00:03.260Z,99713.55
2023-04-27T18:02:31.082Z,99717.17
2023-04-27T18:04:59.066Z,99720.10
2023-04-27T18:07:26.932Z,99721.66
2023-04-27T18:09:56.785Z,99723.37
2023-04-27T18:12:24.823Z,99720.75
2023-04-27T18:14:52.723Z,99724.02
2023-04-27T18:17:21.266Z,99726.95
2023-04-27T18:19:55.345Z,99730.59
2023-04-27T18:22:28.878Z,99733.69
2023-04-27T18:24:56.742Z,99737.68
2023-04-27T18:27:24.507Z,99741.14
2023-04-27T18:29:52.271Z,99744.59
2023-04-27T18:32:20.038Z,99746.48
2023-04-27T18:34:48.008Z,99748.21
2023-04-27T18:37:15.869Z,99752.20
2023-04-27T18:39:43.848Z,99753.23
2023-04-27T18:42:11.805Z,99752.19
2023-04-27T18:44:39.571Z,99756.52
2023-04-27T18:47:08.051Z,99757.58
2023-04-27T18:49:35.921Z,99757.39
2023-04-27T18:52:03.569Z,99757.92
2023-04-27T18:54:31.239Z,99762.06
2023-04-27T18:56:59.004Z,99760.28
2023-04-27T18:59:26.663Z,99761.13
2023-04-27T19:01:54.520Z,99761.81
2023-04-27T19:04:22.724Z,99759.90
2023-04-27T19:06:50.883Z,99762.66
2023-04-27T19:09:19.569Z,99763.85
2023-04-27T19:11:56.114Z,99766.09
2023-04-27T19:14:33.734Z,99766.92
2023-04-27T19:17:01.851Z,99766.36
2023-04-27T19:19:29.781Z,99770.67
2023-04-27T19:21:58.689Z,99767.86
2023-04-27T19:24:26.426Z,99767.09
2023-04-27T19:26:54.409Z,99768.09
2023-04-27T19:29:22.468Z,99767.86
2023-04-27T19:31:50.240Z,99764.48
2023-04-27T19:34:18.003Z,99765.98
2023-04-27T19:36:46.594Z,99764.88
2023-04-27T19:39:16.025Z,99766.01
2023-04-27T19:41:43.954Z,99766.45
2023-04-27T19:44:11.832Z,99770.52
2023-04-27T19:46:40.113Z,99770.63
2023-04-27T19:49:07.866Z,99767.79
2023-04-27T19:51:35.615Z,99767.91
2023-04-27T19:54:03.285Z,99770.42
2023-04-27T19:56:32.894Z,99768.73
2023-04-27T19:59:00.962Z,99764.30
2023-04-27T20:01:28.761Z,99767.33
2023-04-27T20:03:57.572Z,99766.39
2023-04-27T20:06:25.483Z,99764.58
2023-04-27T20:08:53.247Z,99767.54
2023-04-27T20:11:21.110Z,99768.42
2023-04-27T20:13:49.487Z,99767.36
2023-04-27T20:16:18.657Z,99768.03
2023-04-27T20:18:46.762Z,99774.98
2023-04-27T20:21:14.832Z,99777.22
2023-04-27T20:23:43.105Z,99777.20
2023-04-27T20:26:11.072Z,99778.24
2023-04-27T20:28:38.753Z,99778.57
2023-04-27T20:31:06.504Z,99774.74
2023-04-27T20:33:34.160Z,99777.15
2023-04-27T20:36:14.070Z,99778.49
2023-04-27T20:38:44.747Z,99780.02
2023-04-27T20:41:12.717Z,99780.13
2023-04-27T20:43:40.896Z,99779.71
2023-04-27T20:46:08.708Z,99782.40
2023-04-27T20:48:36.932Z,99787.34
2023-04-27T20:51:04.703Z,99784.49
2023-04-27T20:53:32.353Z,99789.42
2023-04-27T20:56:00.015Z,99787.77
2023-04-27T20:58:27.693Z,99785.77
2023-04-27T21:00:55.689Z,99786.05
2023-04-27T21:03:23.606Z,99785.30
2023-04-27T21:05:51.796Z,99790.24
2023-04-27T21:08:19.559Z,99790.21
2023-04-27T21:10:47.421Z,99792.81
2023-04-27T21:13:15.296Z,99793.31
2023-04-27T21:15:43.261Z,99796.09
2023-04-27T21:18:22.438Z,99794.80
2023-04-27T21:20:56.600Z,99794.73
2023-04-27T21:23:24.369Z,99794.11
2023-04-27T21:25:52.134Z,99790.95
2023-04-27T21:28:19.896Z,99793.34
2023-04-27T21:30:47.941Z,99796.95
2023-04-27T21:33:15.739Z,99797.77
2023-04-27T21:35:43.700Z,99798.77
2023-04-27T21:38:11.461Z,99803.10
2023-04-27T21:40:39.634Z,99800.95
2023-04-27T21:43:07.917Z,99806.20
2023-04-27T21:45:36.390Z,99804.48
2023-04-27T21:48:04.130Z,99803.52
2023-04-27T21:50:31.919Z,99805.82
2023-04-27T21:52:59.581Z,99812.64
2023-04-27T21:55:27.241Z,99810.60
2023-04-27T21:57:55.107Z,99810.97
2023-04-27T22:00:22.880Z,99816.00
2023-04-27T22:02:51.681Z,99814.02
2023-04-27T22:05:22.605Z,99819.15
2023-04-27T22:07:51.701Z,99814.39
2023-04-27T22:10:19.453Z,99819.48
2023-04-27T22:12:47.335Z,99815.42
2023-04-27T22:15:15.406Z,99813.40
2023-04-27T22:17:44.158Z,99819.20
2023-04-27T22:20:13.071Z,99816.38
2023-04-27T22:22:41.259Z,99819.30
2023-04-27T22:25:09.015Z,99821.15
2023-04-27T22:27:44.601Z,99823.70
2023-04-27T22:30:13.362Z,99825.40
2023-04-27T22:32:41.379Z,99824.50
2023-04-27T22:35:24.862Z,99821.13
2023-04-27T22:37:54.659Z,99820.45
2023-04-27T22:40:22.330Z,99823.02
2023-04-27T22:42:50.093Z,99818.35
2023-04-27T22:45:17.716Z,99819.40
2023-04-27T22:47:46.218Z,99820.13
2023-04-27T22:50:14.098Z,99822.02
2023-04-27T22:52:44.839Z,99818.01
2023-04-27T22:55:12.685Z,99824.80
2023-04-27T22:57:40.666Z,99825.38
2023-04-27T23:00:12.052Z,99828.31
2023-04-27T23:02:40.536Z,99824.39
2023-04-27T23:05:08.668Z,99826.39
2023-04-27T23:07:36.404Z,99828.63
2023-04-27T23:10:05.220Z,99827.20
2023-04-27T23:12:32.988Z,99826.99
2023-04-27T23:15:00.746Z,99828.27
2023-04-27T23:17:31.370Z,99829.86
2023-04-27T23:19:59.291Z,99831.50
2023-04-27T23:22:27.016Z,99833.15
2023-04-27T23:24:54.777Z,99832.91
2023-04-27T23:27:23.769Z,99832.65
2023-04-27T23:29:51.539Z,99832.93
2023-04-27T23:32:19.312Z,99825.07
2023-04-27T23:34:47.057Z,99823.59
2023-04-27T23:37:14.720Z,99821.21
2023-04-27T23:39:42.499Z,99819.99
2023-04-27T23:42:10.247Z,99816.55
2023-04-27T23:44:38.011Z,99816.58
2023-04-27T23:47:05.672Z,99817.08
2023-04-27T23:49:33.336Z,99817.67
2023-04-27T23:52:00.997Z,99814.00
2023-04-27T23:54:28.660Z,99818.57
2023-04-27T23:56:56.428Z,99814.34
2023-04-27T23:59:24.093Z,99816.36
